createdAt,value
2017-09-08T00:00:57.287Z,72.70
2017-09-08T00:03:23.734Z,72.50
2017-09-08T00:05:50.182Z,72.20
2017-09-08T00:08:16.642Z,71.40
2017-09-08T00:10:43.106Z,71.20
2017-09-08T00:13:09.603Z,72.20
2017-09-08T00:15:36.017Z,72.80
2017-09-08T00:18:02.437Z,72.90
2017-09-08T00:20:28.904Z,72.60
2017-09-08T00:22:56.087Z,73.60
2017-09-08T00:25:22.564Z,73.60
2017-09-08T00:27:48.969Z,73.60
2017-09-08T00:30:15.414Z,74.00
2017-09-08T00:32:41.894Z,73.90
2017-09-08T00:35:09.054Z,72.90
2017-09-08T00:37:36.252Z,72.30
2017-09-08T00:40:02.729Z,72.10
2017-09-08T00:42:29.933Z,73.20
2017-09-08T00:44:56.374Z,73.00
2017-09-08T00:47:22.808Z,73.00
2017-09-08T00:49:49.241Z,72.50
2017-09-08T00:52:15.698Z,72.00
2017-09-08T00:54:42.221Z,71.60
2017-09-08T00:57:08.698Z,71.30
2017-09-08T00:59:35.189Z,70.40
2017-09-08T01:02:01.644Z,70.50
2017-09-08T01:04:28.850Z,71.30
2017-09-08T01:06:55.291Z,71.20
2017-09-08T01:09:21.735Z,71.40
2017-09-08T01:11:48.202Z,71.40
2017-09-08T01:14:15.440Z,73.80
2017-09-08T01:16:42.646Z,73.50
2017-09-08T01:19:09.193Z,73.40
2017-09-08T01:21:35.681Z,72.70
2017-09-08T01:24:02.858Z,71.90
2017-09-08T01:26:29.265Z,71.80
2017-09-08T01:28:55.736Z,71.20
2017-09-08T01:31:22.165Z,71.50
2017-09-08T01:33:48.617Z,71.30
2017-09-08T01:36:15.074Z,71.30
2017-09-08T01:38:41.525Z,71.40
2017-09-08T01:41:07.974Z,70.90
2017-09-08T01:43:34.406Z,70.90
2017-09-08T01:46:00.873Z,71.40
2017-09-08T01:48:27.321Z,71.20
2017-09-08T01:50:53.741Z,71.10
2017-09-08T01:53:20.157Z,70.70
2017-09-08T01:55:46.634Z,70.70
2017-09-08T01:58:13.805Z,72.10
2017-09-08T02:00:40.987Z,73.60
2017-09-08T02:03:07.453Z,72.80
2017-09-08T02:05:33.998Z,72.80
2017-09-08T02:08:00.405Z,72.50
2017-09-08T02:10:26.876Z,72.30
2017-09-08T02:12:53.371Z,71.90
2017-09-08T02:15:19.853Z,72.40
2017-09-08T02:17:47.066Z,72.40
2017-09-08T02:20:13.533Z,72.20
2017-09-08T02:22:40.750Z,72.50
2017-09-08T02:25:07.182Z,72.50
2017-09-08T02:27:33.631Z,72.30
2017-09-08T02:30:00.807Z,73.00
2017-09-08T02:32:27.978Z,72.80
2017-09-08T02:34:55.158Z,72.60
2017-09-08T02:37:21.569Z,72.60
2017-09-08T02:39:47.996Z,72.50
2017-09-08T02:42:14.441Z,72.50
2017-09-08T02:44:40.915Z,72.50
2017-09-08T02:47:07.347Z,72.40
2017-09-08T02:49:33.749Z,72.10
2017-09-08T02:52:00.169Z,72.00
2017-09-08T02:54:26.609Z,71.60
2017-09-08T02:56:53.089Z,71.30
2017-09-08T02:59:19.569Z,71.40
2017-09-08T03:01:46.009Z,71.40
2017-09-08T03:04:12.474Z,71.70
2017-09-08T03:06:38.954Z,71.50
2017-09-08T03:09:05.394Z,71.50
2017-09-08T03:11:31.801Z,71.10
2017-09-08T03:13:58.989Z,72.00
2017-09-08T03:16:25.416Z,71.20
2017-09-08T03:18:51.872Z,70.90
2017-09-08T03:21:18.383Z,70.90
2017-09-08T03:23:44.820Z,71.10
2017-09-08T03:26:11.241Z,71.40
2017-09-08T03:28:37.670Z,71.20
2017-09-08T03:31:04.127Z,71.00
2017-09-08T03:33:30.557Z,70.70
2017-09-08T03:35:56.981Z,71.20
2017-09-08T03:38:23.426Z,71.00
2017-09-08T03:40:49.841Z,71.00
2017-09-08T03:43:16.282Z,71.00
2017-09-08T03:45:42.730Z,70.70
2017-09-08T03:48:09.206Z,71.00
2017-09-08T03:50:35.634Z,70.90
2017-09-08T03:53:02.822Z,71.80
2017-09-08T03:55:29.263Z,71.00
2017-09-08T03:57:55.676Z,71.20
2017-09-08T04:00:22.836Z,70.80
2017-09-08T04:02:49.302Z,70.90
2017-09-08T04:05:15.738Z,70.90
2017-09-08T04:07:42.998Z,70.70
2017-09-08T04:10:09.470Z,70.70
2017-09-08T04:12:35.898Z,70.70
2017-09-08T04:15:03.046Z,71.10
2017-09-08T04:17:29.518Z,71.00
2017-09-08T04:19:55.994Z,70.90
2017-09-08T04:22:23.189Z,70.70
2017-09-08T04:24:49.613Z,70.70
2017-09-08T04:27:16.039Z,71.10
2017-09-08T04:29:43.266Z,71.00
2017-09-08T04:32:09.742Z,71.00
2017-09-08T04:34:36.150Z,71.10
2017-09-08T04:37:02.584Z,70.90
2017-09-08T04:39:29.761Z,70.60
2017-09-08T04:41:56.169Z,70.50
2017-09-08T04:44:22.641Z,71.00
2017-09-08T04:46:49.053Z,70.80
2017-09-08T04:49:15.481Z,70.80
2017-09-08T04:51:41.909Z,70.70
2017-09-08T04:54:08.392Z,70.50
2017-09-08T04:56:35.601Z,70.60
2017-09-08T04:59:02.057Z,70.40
2017-09-08T05:01:28.473Z,70.70
2017-09-08T05:03:54.925Z,70.70
2017-09-08T05:06:21.379Z,70.70
2017-09-08T05:08:47.802Z,70.90
2017-09-08T05:11:14.235Z,70.60
2017-09-08T05:13:40.773Z,70.70
2017-09-08T05:16:07.218Z,70.30
2017-09-08T05:18:34.449Z,70.20
2017-09-08T05:21:00.905Z,70.10
2017-09-08T05:23:27.413Z,70.40
2017-09-08T05:25:53.861Z,70.20
2017-09-08T05:28:21.074Z,70.20
2017-09-08T05:30:47.537Z,70.10
2017-09-08T05:33:13.965Z,70.00
2017-09-08T05:35:40.423Z,69.80
2017-09-08T05:38:06.863Z,69.40
2017-09-08T05:40:34.041Z,68.40
2017-09-08T05:43:00.516Z,68.40
2017-09-08T05:45:26.944Z,68.20
2017-09-08T05:47:53.390Z,66.50
2017-09-08T05:50:20.601Z,65.60
2017-09-08T05:52:47.115Z,65.50
2017-09-08T05:55:13.573Z,66.10
2017-09-08T05:57:40.002Z,64.80
2017-09-08T06:00:06.413Z,64.70
2017-09-08T06:02:32.920Z,64.70
2017-09-08T06:04:59.397Z,63.90
2017-09-08T06:07:25.806Z,63.60
2017-09-08T06:09:52.992Z,63.30
2017-09-08T06:12:19.462Z,63.30
2017-09-08T06:14:45.929Z,62.90
2017-09-08T06:17:13.112Z,63.10
2017-09-08T06:19:39.534Z,63.10
2017-09-08T06:22:06.001Z,63.30
2017-09-08T06:24:33.146Z,62.50
2017-09-08T06:27:01.192Z,62.50
2017-09-08T06:29:27.690Z,62.10
2017-09-08T06:31:54.143Z,62.10
2017-09-08T06:34:21.425Z,62.20
2017-09-08T06:36:47.850Z,62.10
2017-09-08T06:39:14.276Z,62.10
2017-09-08T06:41:40.766Z,61.40
2017-09-08T06:44:07.930Z,60.80
2017-09-08T06:46:35.144Z,60.00
2017-09-08T06:49:01.572Z,59.90
2017-09-08T06:51:28.802Z,59.70
2017-09-08T06:53:55.678Z,59.20
2017-09-08T06:56:22.148Z,58.30
2017-09-08T06:58:48.661Z,58.10
2017-09-08T07:01:15.127Z,57.60
2017-09-08T07:03:41.549Z,56.70
2017-09-08T07:06:08.014Z,56.20
2017-09-08T07:08:34.459Z,56.50
2017-09-08T07:11:00.901Z,56.00
2017-09-08T07:13:27.353Z,56.40
2017-09-08T07:15:53.775Z,56.20
2017-09-08T07:18:20.992Z,55.30
2017-09-08T07:20:47.469Z,55.20
2017-09-08T07:23:14.652Z,55.70
2017-09-08T07:25:41.133Z,55.60
2017-09-08T07:28:08.338Z,55.10
2017-09-08T07:30:35.528Z,54.90
2017-09-08T07:33:02.002Z,54.80
2017-09-08T07:35:28.453Z,55.20
2017-09-08T07:37:54.926Z,54.60
2017-09-08T07:40:21.383Z,54.30
2017-09-08T07:42:47.899Z,54.00
2017-09-08T07:45:14.359Z,55.20
2017-09-08T07:47:40.782Z,55.30
2017-09-08T07:50:07.217Z,55.30
2017-09-08T07:52:33.650Z,55.20
2017-09-08T07:55:00.871Z,55.60
2017-09-08T07:57:27.562Z,55.60
2017-09-08T07:59:54.729Z,55.20
2017-09-08T08:02:21.897Z,55.50
2017-09-08T08:04:48.335Z,55.50
2017-09-08T08:07:14.759Z,54.40
2017-09-08T08:09:41.216Z,55.10
2017-09-08T08:12:07.707Z,54.80
2017-09-08T08:14:34.153Z,55.10
2017-09-08T08:17:00.597Z,55.50
2017-09-08T08:19:27.050Z,55.30
2017-09-08T08:21:53.529Z,55.90
2017-09-08T08:24:20.682Z,56.10
2017-09-08T08:26:47.861Z,57.00
2017-09-08T08:29:14.309Z,56.30
2017-09-08T08:31:40.761Z,56.40
2017-09-08T08:34:07.197Z,56.20
2017-09-08T08:36:33.643Z,56.50
2017-09-08T08:39:00.313Z,55.90
2017-09-08T08:41:27.469Z,56.00
2017-09-08T08:43:53.915Z,55.90
2017-09-08T08:46:20.365Z,55.00
2017-09-08T08:48:46.865Z,55.20
2017-09-08T08:51:13.257Z,53.90
2017-09-08T08:53:39.689Z,53.70
2017-09-08T08:56:06.896Z,53.00
2017-09-08T08:58:33.363Z,53.00
2017-09-08T09:00:59.795Z,52.70
2017-09-08T09:03:26.258Z,52.80
2017-09-08T09:05:52.725Z,52.40
2017-09-08T09:08:19.157Z,52.90
2017-09-08T09:10:45.611Z,53.60
2017-09-08T09:13:12.049Z,53.10
2017-09-08T09:15:38.526Z,53.10
2017-09-08T09:18:04.961Z,53.00
2017-09-08T09:20:32.129Z,53.10
2017-09-08T09:22:58.626Z,53.10
2017-09-08T09:25:25.814Z,52.80
2017-09-08T09:27:52.329Z,52.70
2017-09-08T09:30:19.482Z,52.30
2017-09-08T09:32:46.665Z,52.00
2017-09-08T09:35:13.094Z,52.00
2017-09-08T09:37:39.564Z,51.70
2017-09-08T09:40:06.793Z,51.80
2017-09-08T09:42:33.202Z,51.70
2017-09-08T09:44:59.646Z,50.90
2017-09-08T09:47:26.282Z,51.00
2017-09-08T09:49:52.688Z,51.40
2017-09-08T09:52:19.263Z,51.70
2017-09-08T09:54:46.818Z,51.00
2017-09-08T09:57:13.266Z,51.30
2017-09-08T09:59:40.221Z,51.30
2017-09-08T10:02:06.672Z,50.70
2017-09-08T10:04:33.862Z,51.40
2017-09-08T10:07:00.415Z,51.40
2017-09-08T10:09:26.862Z,51.00
2017-09-08T10:11:53.341Z,50.80
2017-09-08T10:14:20.540Z,50.80
2017-09-08T10:16:47.093Z,50.70
2017-09-08T10:19:13.518Z,50.70
2017-09-08T10:21:39.950Z,49.10
2017-09-08T10:24:06.422Z,48.00
2017-09-08T10:26:33.618Z,48.60
2017-09-08T10:29:00.130Z,48.60
2017-09-08T10:31:26.578Z,47.60
2017-09-08T10:33:53.025Z,47.90
2017-09-08T10:36:19.512Z,48.10
2017-09-08T10:38:46.689Z,48.60
2017-09-08T10:41:13.191Z,48.60
2017-09-08T10:43:40.346Z,49.10
2017-09-08T10:46:07.491Z,49.40
2017-09-08T10:48:34.668Z,49.40
2017-09-08T10:51:01.104Z,49.30
2017-09-08T10:53:27.555Z,49.00
2017-09-08T10:55:53.969Z,49.00
2017-09-08T10:58:20.425Z,48.00
2017-09-08T11:00:46.894Z,48.30
2017-09-08T11:03:13.357Z,47.40
2017-09-08T11:05:39.813Z,47.30
2017-09-08T11:08:06.274Z,47.10
2017-09-08T11:10:32.743Z,46.30
2017-09-08T11:12:59.205Z,46.70
2017-09-08T11:15:25.654Z,46.70
2017-09-08T11:17:52.077Z,46.60
2017-09-08T11:20:18.592Z,46.90
2017-09-08T11:22:45.050Z,46.20
2017-09-08T11:25:11.514Z,46.10
2017-09-08T11:27:38.709Z,45.60
2017-09-08T11:30:05.139Z,45.60
2017-09-08T11:32:37.792Z,45.60
2017-09-08T11:35:10.941Z,44.40
2017-09-08T11:37:37.416Z,44.60
2017-09-08T11:40:04.618Z,43.40
2017-09-08T11:42:31.126Z,43.30
2017-09-08T11:44:57.542Z,43.50
2017-09-08T11:47:24.734Z,44.30
2017-09-08T11:49:51.178Z,44.30
2017-09-08T11:52:17.631Z,44.30
2017-09-08T11:54:44.078Z,43.80
2017-09-08T11:57:10.537Z,43.40
2017-09-08T11:59:36.982Z,44.40
2017-09-08T12:02:03.472Z,43.70
2017-09-08T12:04:30.047Z,43.50
2017-09-08T12:06:56.466Z,43.70
2017-09-08T12:09:23.605Z,44.00
2017-09-08T12:11:50.795Z,43.40
2017-09-08T12:14:17.205Z,43.20
2017-09-08T12:16:44.392Z,44.40
2017-09-08T12:19:10.800Z,44.50
2017-09-08T12:21:37.284Z,44.00
2017-09-08T12:24:03.894Z,43.30
2017-09-08T12:26:30.326Z,43.30
2017-09-08T12:28:56.782Z,44.30
2017-09-08T12:31:23.226Z,44.00
2017-09-08T12:33:49.709Z,43.40
2017-09-08T12:36:16.175Z,43.90
2017-09-08T12:38:42.668Z,43.10
2017-09-08T12:41:09.830Z,43.50
2017-09-08T12:43:37.057Z,43.80
2017-09-08T12:46:04.238Z,43.80
2017-09-08T12:48:30.737Z,43.70
2017-09-08T12:50:57.197Z,43.40
2017-09-08T12:53:23.655Z,43.60
2017-09-08T12:55:50.097Z,44.30
2017-09-08T12:58:17.313Z,43.90
2017-09-08T13:00:44.055Z,43.80
2017-09-08T13:03:10.474Z,42.70
2017-09-08T13:05:36.904Z,42.90
2017-09-08T13:08:04.085Z,43.60
2017-09-08T13:10:30.533Z,43.60
2017-09-08T13:12:56.945Z,44.20
2017-09-08T13:15:23.421Z,44.70
2017-09-08T13:17:49.901Z,43.60
2017-09-08T13:20:16.349Z,43.70
2017-09-08T13:22:42.801Z,43.70
2017-09-08T13:25:09.223Z,43.40
2017-09-08T13:27:35.704Z,43.50
2017-09-08T13:30:02.160Z,43.50
2017-09-08T13:32:28.579Z,43.40
2017-09-08T13:34:55.780Z,44.80
2017-09-08T13:37:22.206Z,44.80
2017-09-08T13:39:48.664Z,43.80
2017-09-08T13:42:15.097Z,44.30
2017-09-08T13:44:42.281Z,44.20
2017-09-08T13:47:09.549Z,44.60
2017-09-08T13:49:35.952Z,44.60
2017-09-08T13:52:03.118Z,45.50
2017-09-08T13:54:29.621Z,45.40
2017-09-08T13:56:56.018Z,45.10
2017-09-08T13:59:22.468Z,44.80
2017-09-08T14:01:48.950Z,45.20
2017-09-08T14:04:15.433Z,45.60
2017-09-08T14:06:41.898Z,45.40
2017-09-08T14:09:09.071Z,45.60
2017-09-08T14:11:36.233Z,46.10
2017-09-08T14:14:02.877Z,46.00
2017-09-08T14:16:29.317Z,45.50
2017-09-08T14:18:55.741Z,46.00
2017-09-08T14:21:22.170Z,46.50
2017-09-08T14:23:48.609Z,45.90
2017-09-08T14:26:15.122Z,46.00
2017-09-08T14:28:41.557Z,46.20
2017-09-08T14:31:08.014Z,46.00
2017-09-08T14:33:34.435Z,45.80
2017-09-08T14:36:00.915Z,45.70
2017-09-08T14:38:27.618Z,45.90
2017-09-08T14:40:54.094Z,46.90
2017-09-08T14:43:20.542Z,47.00
2017-09-08T14:45:47.716Z,46.60
2017-09-08T14:48:14.157Z,46.40
2017-09-08T14:50:40.615Z,46.40
2017-09-08T14:53:07.031Z,47.20
2017-09-08T14:55:33.483Z,46.40
2017-09-08T14:57:59.920Z,46.50
2017-09-08T15:00:26.342Z,46.80
2017-09-08T15:02:52.800Z,46.70
2017-09-08T15:05:19.244Z,47.40
2017-09-08T15:07:46.449Z,48.00
2017-09-08T15:10:12.850Z,48.00
2017-09-08T15:12:40.030Z,48.20
2017-09-08T15:15:06.462Z,48.10
2017-09-08T15:17:32.915Z,48.00
2017-09-08T15:19:59.350Z,47.60
2017-09-08T15:22:26.569Z,47.60
2017-09-08T15:24:53.048Z,47.60
2017-09-08T15:27:19.503Z,47.90
2017-09-08T15:29:45.980Z,48.10
2017-09-08T15:32:12.397Z,48.40
2017-09-08T15:34:38.878Z,48.40
2017-09-08T15:37:05.302Z,48.50
2017-09-08T15:39:31.723Z,48.60
2017-09-08T15:41:58.164Z,48.50
2017-09-08T15:44:24.641Z,48.60
2017-09-08T15:46:51.826Z,48.40
2017-09-08T15:49:18.241Z,48.30
2017-09-08T15:51:44.650Z,48.90
2017-09-08T15:54:11.870Z,49.70
2017-09-08T15:56:38.337Z,49.70
2017-09-08T15:59:04.738Z,49.10
2017-09-08T16:01:31.182Z,49.00
2017-09-08T16:03:57.658Z,49.40
2017-09-08T16:06:24.129Z,49.30
2017-09-08T16:08:50.545Z,49.10
2017-09-08T16:11:17.021Z,49.00
2017-09-08T16:13:43.428Z,49.20
2017-09-08T16:16:09.984Z,49.30
2017-09-08T16:18:36.443Z,49.60
2017-09-08T16:21:03.605Z,49.60
2017-09-08T16:23:30.047Z,49.60
2017-09-08T16:25:56.566Z,49.70
2017-09-08T16:28:22.980Z,50.10
2017-09-08T16:30:50.186Z,49.70
2017-09-08T16:33:16.677Z,49.60
2017-09-08T16:35:43.869Z,49.90
2017-09-08T16:38:10.357Z,49.90
2017-09-08T16:40:36.863Z,50.30
2017-09-08T16:43:03.273Z,50.10
2017-09-08T16:45:29.693Z,50.10
2017-09-08T16:47:56.146Z,49.90
2017-09-08T16:50:22.575Z,50.30
2017-09-08T16:52:49.822Z,50.20
2017-09-08T16:55:16.309Z,50.10
2017-09-08T16:57:42.761Z,50.40
2017-09-08T17:00:09.983Z,50.70
2017-09-08T17:02:36.497Z,50.10
2017-09-08T17:05:03.027Z,50.10
2017-09-08T17:07:29.510Z,50.00
2017-09-08T17:09:55.974Z,50.50
2017-09-08T17:12:23.217Z,50.80
2017-09-08T17:14:49.634Z,50.80
2017-09-08T17:17:16.104Z,51.30
2017-09-08T17:19:43.343Z,51.90
2017-09-08T17:22:09.781Z,52.00
2017-09-08T17:24:36.258Z,52.20
2017-09-08T17:27:03.474Z,52.50
2017-09-08T17:29:29.905Z,52.50
2017-09-08T17:31:56.726Z,52.80
2017-09-08T17:34:23.179Z,52.60
2017-09-08T17:36:49.590Z,53.00
2017-09-08T17:39:16.038Z,53.00
2017-09-08T17:41:42.469Z,53.60
2017-09-08T17:44:08.927Z,53.50
2017-09-08T17:46:35.387Z,53.40
2017-09-08T17:49:01.872Z,53.60
2017-09-08T17:51:28.339Z,53.40
2017-09-08T17:53:54.831Z,53.70
2017-09-08T17:56:21.310Z,53.40
2017-09-08T17:58:48.509Z,53.50
2017-09-08T18:01:15.006Z,53.50
2017-09-08T18:03:42.198Z,53.70
2017-09-08T18:06:08.619Z,53.70
2017-09-08T18:08:35.081Z,54.20
2017-09-08T18:11:01.542Z,54.00
2017-09-08T18:13:27.960Z,55.20
2017-09-08T18:15:55.189Z,56.50
2017-09-08T18:18:21.626Z,56.50
2017-09-08T18:20:48.074Z,56.50
2017-09-08T18:23:14.558Z,56.40
2017-09-08T18:25:41.018Z,56.80
2017-09-08T18:28:07.517Z,57.00
2017-09-08T18:30:33.947Z,57.40
2017-09-08T18:33:00.431Z,57.60
2017-09-08T18:35:26.981Z,57.30
2017-09-08T18:37:53.423Z,57.30
2017-09-08T18:40:19.882Z,57.60
2017-09-08T18:42:46.330Z,58.70
2017-09-08T18:45:12.806Z,59.20
2017-09-08T18:47:39.989Z,60.90
2017-09-08T18:50:07.228Z,60.10
2017-09-08T18:52:34.413Z,60.20
2017-09-08T18:55:00.903Z,60.20
2017-09-08T18:57:27.353Z,60.30
2017-09-08T18:59:54.590Z,61.30
2017-09-08T19:02:21.056Z,60.50
2017-09-08T19:04:47.523Z,60.70
2017-09-08T19:07:13.992Z,60.80
2017-09-08T19:09:40.508Z,60.30
2017-09-08T19:12:06.953Z,60.00
2017-09-08T19:14:34.167Z,60.20
2017-09-08T19:17:02.858Z,60.10
2017-09-08T19:19:30.073Z,60.20
2017-09-08T19:21:57.262Z,59.80
2017-09-08T19:24:23.730Z,59.80
2017-09-08T19:26:50.185Z,59.20
2017-09-08T19:29:16.630Z,59.40
2017-09-08T19:31:43.119Z,59.30
2017-09-08T19:34:09.609Z,59.90
2017-09-08T19:36:36.079Z,60.50
2017-09-08T19:39:02.603Z,61.10
2017-09-08T19:41:29.116Z,61.30
2017-09-08T19:43:55.602Z,60.90
2017-09-08T19:46:22.770Z,60.60
2017-09-08T19:48:49.261Z,60.60
2017-09-08T19:51:15.698Z,60.80
2017-09-08T19:53:42.181Z,60.80
2017-09-08T19:56:08.649Z,60.90
2017-09-08T19:58:35.151Z,60.60
2017-09-08T20:01:01.586Z,60.70
2017-09-08T20:03:28.068Z,61.10
2017-09-08T20:05:54.554Z,61.00
2017-09-08T20:08:20.995Z,61.00
2017-09-08T20:10:47.454Z,60.80
2017-09-08T20:13:13.865Z,60.80
2017-09-08T20:15:40.369Z,60.90
2017-09-08T20:18:06.862Z,61.10
2017-09-08T20:33:41.194Z,59.90
2017-09-08T20:36:08.370Z,60.00
2017-09-08T20:38:34.819Z,60.10
2017-09-08T20:41:01.261Z,60.40
2017-09-08T20:43:27.660Z,60.30
2017-09-08T20:45:54.093Z,60.50
2017-09-08T20:48:21.291Z,60.70
2017-09-08T20:50:47.756Z,60.70
2017-09-08T20:53:14.913Z,60.80
2017-09-08T20:55:42.145Z,60.90
2017-09-08T20:58:08.653Z,60.80
2017-09-08T21:00:35.096Z,61.00
2017-09-08T21:03:01.584Z,61.20
2017-09-08T21:05:28.162Z,61.20
2017-09-08T21:07:54.689Z,61.20
2017-09-08T21:10:21.227Z,61.60
2017-09-08T21:12:48.514Z,61.60
2017-09-08T21:15:15.684Z,61.50
2017-09-08T21:17:42.230Z,61.40
2017-09-08T21:20:08.700Z,61.30
2017-09-08T21:22:35.200Z,61.40
2017-09-08T21:25:01.677Z,61.50
2017-09-08T21:27:28.130Z,61.40
2017-09-08T21:29:55.314Z,61.20
2017-09-08T21:32:22.553Z,61.50
2017-09-08T21:34:49.862Z,61.30
2017-09-08T21:37:16.334Z,61.10
2017-09-08T21:39:43.513Z,62.30
2017-09-08T21:42:10.096Z,61.50
2017-09-08T21:44:36.573Z,61.30
2017-09-08T21:47:03.028Z,61.30
2017-09-08T21:49:29.498Z,61.50
2017-09-08T21:51:55.922Z,61.20
2017-09-08T21:54:22.338Z,61.30
2017-09-08T21:56:49.540Z,61.30
2017-09-08T21:59:16.692Z,61.20
2017-09-08T22:01:43.878Z,61.30
2017-09-08T22:04:10.423Z,61.20
2017-09-08T22:06:36.906Z,61.20
2017-09-08T22:09:03.397Z,61.10
2017-09-08T22:11:29.853Z,60.60
2017-09-08T22:13:57.090Z,60.50
2017-09-08T22:16:24.282Z,60.40
2017-09-08T22:18:51.457Z,60.30
2017-09-08T22:21:17.889Z,60.20
2017-09-08T22:23:44.312Z,60.20
2017-09-08T22:26:10.763Z,60.10
2017-09-08T22:28:37.213Z,60.40
2017-09-08T22:31:03.659Z,60.30
2017-09-08T22:33:30.085Z,60.10
2017-09-08T22:35:56.555Z,60.20
2017-09-08T22:38:23.713Z,60.00
2017-09-08T22:40:50.886Z,60.00
2017-09-08T22:43:17.357Z,59.90
2017-09-08T22:45:43.786Z,59.80
2017-09-08T22:48:10.965Z,59.60
2017-09-08T22:50:37.378Z,60.20
2017-09-08T22:53:03.802Z,60.00
2017-09-08T22:55:30.234Z,59.20
2017-09-08T22:57:56.663Z,59.00
2017-09-08T23:00:23.085Z,58.80
2017-09-08T23:02:49.573Z,58.70
2017-09-08T23:05:16.046Z,58.40
2017-09-08T23:07:42.505Z,58.40
2017-09-08T23:10:08.953Z,58.10
2017-09-08T23:12:35.409Z,58.00
2017-09-08T23:15:02.577Z,57.90
2017-09-08T23:17:29.011Z,57.90
2017-09-08T23:19:55.512Z,58.10
2017-09-08T23:22:22.670Z,58.60
2017-09-08T23:24:49.830Z,58.20
2017-09-08T23:27:16.310Z,58.10
2017-09-08T23:29:42.723Z,58.00
2017-09-08T23:32:09.130Z,57.90
2017-09-08T23:34:36.282Z,58.00
2017-09-08T23:37:02.729Z,58.60
2017-09-08T23:39:29.154Z,57.90
2017-09-08T23:41:55.645Z,57.70
2017-09-08T23:44:22.083Z,57.80
2017-09-08T23:46:49.291Z,57.50
2017-09-08T23:49:15.746Z,57.50
2017-09-08T23:51:42.194Z,57.50
2017-09-08T23:54:08.635Z,57.50
2017-09-08T23:56:35.029Z,57.50
2017-09-08T23:59:01.559Z,57.50
